sensor_id;sensor_type;location;lat;lon;timestamp;pressure;altitude;pressure_sealevel;temperature;humidity
62111;BME280;48102;47.526;19.072;2022-11-15T04:45:42;100819.84;;;4.58;100.00
62111;BME280;48102;47.526;19.072;2022-11-15T04:49:04;100818.19;;;4.52;100.00
62111;BME280;48102;47.526;19.072;2022-11-15T04:52:26;100819.94;;;4.53;100.00
62111;BME280;48102;47.526;19.072;2022-11-15T04:55:47;100814.59;;;4.60;100.00
62111;BME280;48102;47.526;19.072;2022-11-15T04:59:08;100804.97;;;4.63;100.00
62111;BME280;48102;47.526;19.072;2022-11-15T05:02:29;100797.97;;;4.65;100.00
62111;BME280;48102;47.526;19.072;2022-11-15T05:06:10;100796.94;;;4.74;100.00
62111;BME280;48102;47.526;19.072;2022-11-15T05:09:31;100794.22;;;4.80;100.00
62111;BME280;48102;47.526;19.072;2022-11-15T05:12:52;100791.47;;;4.86;100.00
62111;BME280;48102;47.526;19.072;2022-11-15T05:16:13;100796.59;;;4.92;100.00
62111;BME280;48102;47.526;19.072;2022-11-15T05:19:34;100803.34;;;5.02;100.00
62111;BME280;48102;47.526;19.072;2022-11-15T05:22:56;100800.66;;;5.07;100.00
62111;BME280;48102;47.526;19.072;2022-11-15T05:26:18;100805.94;;;5.04;100.00
62111;BME280;48102;47.526;19.072;2022-11-15T05:29:39;100809.19;;;5.15;100.00
62111;BME280;48102;47.526;19.072;2022-11-15T05:33:00;100815.16;;;5.22;100.00
62111;BME280;48102;47.526;19.072;2022-11-15T05:36:25;100809.06;;;5.23;100.00
62111;BME280;48102;47.526;19.072;2022-11-15T05:39:48;100801.81;;;5.36;100.00
62111;BME280;48102;47.526;19.072;2022-11-15T05:43:10;100804.53;;;5.29;100.00
62111;BME280;48102;47.526;19.072;2022-11-15T05:46:32;100801.78;;;5.37;100.00
62111;BME280;48102;47.526;19.072;2022-11-15T05:49:54;100805.25;;;5.38;100.00
62111;BME280;48102;47.526;19.072;2022-11-15T05:53:18;100805.91;;;5.49;100.00
62111;BME280;48102;47.526;19.072;2022-11-15T05:56:40;100805.78;;;5.53;100.00
62111;BME280;48102;47.526;19.072;2022-11-15T06:00:03;100798.72;;;5.59;100.00
62111;BME280;48102;47.526;19.072;2022-11-15T06:03:31;100790.69;;;5.66;100.00
62111;BME280;48102;47.526;19.072;2022-11-15T06:06:53;100794.91;;;5.72;100.00
62111;BME280;48102;47.526;19.072;2022-11-15T06:10:15;100789.66;;;5.73;100.00
62111;BME280;48102;47.526;19.072;2022-11-15T06:13:37;100787.78;;;5.78;100.00
62111;BME280;48102;47.526;19.072;2022-11-15T06:16:58;100792.09;;;5.81;100.00
62111;BME280;48102;47.526;19.072;2022-11-15T06:20:19;100796.31;;;5.88;100.00
62111;BME280;48102;47.526;19.072;2022-11-15T06:23:40;100788.38;;;5.93;100.00
62111;BME280;48102;47.526;19.072;2022-11-15T06:27:01;100782.13;;;5.98;100.00
62111;BME280;48102;47.526;19.072;2022-11-15T06:30:23;100787.38;;;5.98;100.00
62111;BME280;48102;47.526;19.072;2022-11-15T06:33:47;100801.12;;;6.07;100.00
62111;BME280;48102;47.526;19.072;2022-11-15T06:37:10;100806.75;;;6.27;100.00
62111;BME280;48102;47.526;19.072;2022-11-15T06:40:35;100801.16;;;6.05;100.00
62111;BME280;48102;47.526;19.072;2022-11-15T06:43:57;100797.78;;;6.00;100.00
62111;BME280;48102;47.526;19.072;2022-11-15T06:47:18;100791.78;;;5.96;100.00
62111;BME280;48102;47.526;19.072;2022-11-15T06:50:39;100799.53;;;5.99;100.00
62111;BME280;48102;47.526;19.072;2022-11-15T06:54:01;100805.00;;;5.89;100.00
62111;BME280;48102;47.526;19.072;2022-11-15T06:57:22;100795.44;;;5.88;100.00
62111;BME280;48102;47.526;19.072;2022-11-15T07:00:44;100792.16;;;5.78;100.00
62111;BME280;48102;47.526;19.072;2022-11-15T07:04:05;100794.72;;;5.81;100.00
62111;BME280;48102;47.526;19.072;2022-11-15T07:07:26;100794.59;;;5.87;100.00
62111;BME280;48102;47.526;19.072;2022-11-15T07:10:48;100789.25;;;5.90;100.00
62111;BME280;48102;47.526;19.072;2022-11-15T07:14:09;100778.72;;;5.95;100.00
62111;BME280;48102;47.526;19.072;2022-11-15T07:17:30;100787.38;;;5.98;100.00
62111;BME280;48102;47.526;19.072;2022-11-15T07:20:52;100796.69;;;6.09;100.00
62111;BME280;48102;47.526;19.072;2022-11-15T07:24:13;100791.28;;;6.18;100.00
62111;BME280;48102;47.526;19.072;2022-11-15T07:27:34;100786.53;;;6.32;100.00
62111;BME280;48102;47.526;19.072;2022-11-15T07:30:57;100778.25;;;6.49;100.00
62111;BME280;48102;47.526;19.072;2022-11-15T07:34:18;100781.31;;;6.65;100.00
62111;BME280;48102;47.526;19.072;2022-11-15T07:37:39;100782.94;;;6.70;100.00
62111;BME280;48102;47.526;19.072;2022-11-15T07:41:04;100779.34;;;6.73;100.00
62111;BME280;48102;47.526;19.072;2022-11-15T07:44:25;100790.50;;;6.81;100.00
62111;BME280;48102;47.526;19.072;2022-11-15T07:47:47;100785.56;;;6.70;100.00
62111;BME280;48102;47.526;19.072;2022-11-15T07:51:12;100790.25;;;6.58;100.00
62111;BME280;48102;47.526;19.072;2022-11-15T07:54:34;100780.50;;;6.63;100.00
62111;BME280;48102;47.526;19.072;2022-11-15T07:58:06;100767.09;;;6.75;100.00
62111;BME280;48102;47.526;19.072;2022-11-15T08:01:28;100769.34;;;6.89;100.00
62111;BME280;48102;47.526;19.072;2022-11-15T08:04:49;100767.41;;;6.95;100.00
62111;BME280;48102;47.526;19.072;2022-11-15T08:08:11;100774.03;;;7.09;100.00
62111;BME280;48102;47.526;19.072;2022-11-15T08:11:32;100772.41;;;7.34;100.00
62111;BME280;48102;47.526;19.072;2022-11-15T08:14:53;100769.75;;;7.64;100.00
62111;BME280;48102;47.526;19.072;2022-11-15T08:18:16;100756.38;;;7.73;100.00
62111;BME280;48102;47.526;19.072;2022-11-15T08:21:37;100752.44;;;7.86;100.00
62111;BME280;48102;47.526;19.072;2022-11-15T08:24:58;100744.44;;;7.91;100.00
62111;BME280;48102;47.526;19.072;2022-11-15T08:28:19;100750.94;;;8.05;100.00
62111;BME280;48102;47.526;19.072;2022-11-15T08:31:41;100744.91;;;8.02;100.00
62111;BME280;48102;47.526;19.072;2022-11-15T08:35:03;100734.56;;;7.71;100.00
62111;BME280;48102;47.526;19.072;2022-11-15T08:38:24;100730.69;;;7.54;100.00
62111;BME280;48102;47.526;19.072;2022-11-15T08:41:45;100722.88;;;7.53;100.00
62111;BME280;48102;47.526;19.072;2022-11-15T08:45:08;100717.00;;;7.45;100.00
62111;BME280;48102;47.526;19.072;2022-11-15T08:48:29;100728.56;;;7.39;100.00
62111;BME280;48102;47.526;19.072;2022-11-15T08:51:50;100727.19;;;7.56;100.00
62111;BME280;48102;47.526;19.072;2022-11-15T08:55:12;100717.25;;;7.65;100.00
62111;BME280;48102;47.526;19.072;2022-11-15T08:58:33;100714.63;;;7.65;100.00
62111;BME280;48102;47.526;19.072;2022-11-15T09:01:54;100724.13;;;7.41;100.00
62111;BME280;48102;47.526;19.072;2022-11-15T09:05:16;100722.63;;;7.33;100.00
62111;BME280;48102;47.526;19.072;2022-11-15T09:08:37;100720.56;;;7.44;100.00
62111;BME280;48102;47.526;19.072;2022-11-15T09:12:08;100714.06;;;7.56;100.00
62111;BME280;48102;47.526;19.072;2022-11-15T09:15:29;100711.16;;;7.65;100.00
62111;BME280;48102;47.526;19.072;2022-11-15T09:18:50;100703.12;;;7.69;100.00
62111;BME280;48102;47.526;19.072;2022-11-15T09:22:12;100697.94;;;7.94;100.00
62111;BME280;48102;47.526;19.072;2022-11-15T09:25:33;100690.50;;;8.34;100.00
62111;BME280;48102;47.526;19.072;2022-11-15T09:28:54;100687.84;;;8.59;100.00
62111;BME280;48102;47.526;19.072;2022-11-15T09:32:15;100685.38;;;8.79;100.00
62111;BME280;48102;47.526;19.072;2022-11-15T09:35:36;100684.34;;;8.83;100.00
62111;BME280;48102;47.526;19.072;2022-11-15T09:38:58;100684.75;;;8.72;100.00
62111;BME280;48102;47.526;19.072;2022-11-15T09:46:15;100672.09;;;8.59;100.00
62111;BME280;48102;47.526;19.072;2022-11-15T09:49:26;100680.72;;;8.62;100.00
62111;BME280;48102;47.526;19.072;2022-11-15T09:52:29;100671.81;;;8.43;100.00
62111;BME280;48102;47.526;19.072;2022-11-15T09:55:44;100674.25;;;8.22;100.00
62111;BME280;48102;47.526;19.072;2022-11-15T10:05:23;100675.47;;;8.12;100.00
62111;BME280;48102;47.526;19.072;2022-11-15T10:11:48;100664.41;;;8.29;100.00
62111;BME280;48102;47.526;19.072;2022-11-15T10:15:03;100662.19;;;8.17;100.00
62111;BME280;48102;47.526;19.072;2022-11-15T10:18:29;100653.13;;;8.00;100.00
62111;BME280;48102;47.526;19.072;2022-11-15T10:21:59;100650.28;;;7.82;100.00
62111;BME280;48102;47.526;19.072;2022-11-15T10:28:17;100631.13;;;8.04;100.00
62111;BME280;48102;47.526;19.072;2022-11-15T10:31:28;100632.06;;;8.02;100.00
62111;BME280;48102;47.526;19.072;2022-11-15T10:34:35;100620.03;;;7.96;100.00
62111;BME280;48102;47.526;19.072;2022-11-15T10:37:38;100626.34;;;7.91;100.00
62111;BME280;48102;47.526;19.072;2022-11-15T10:40:44;100628.00;;;7.93;100.00
62111;BME280;48102;47.526;19.072;2022-11-15T10:47:25;100615.47;;;8.01;100.00
62111;BME280;48102;47.526;19.072;2022-11-15T10:50:32;100611.75;;;8.07;100.00
62111;BME280;48102;47.526;19.072;2022-11-15T10:53:43;100594.38;;;8.04;100.00
62111;BME280;48102;47.526;19.072;2022-11-15T10:56:53;100591.84;;;8.01;100.00
62111;BME280;48102;47.526;19.072;2022-11-15T11:03:30;100592.16;;;8.17;100.00
62111;BME280;48102;47.526;19.072;2022-11-15T11:06:51;100580.31;;;8.30;100.00
62111;BME280;48102;47.526;19.072;2022-11-15T11:10:04;100573.97;;;8.36;100.00
62111;BME280;48102;47.526;19.072;2022-11-15T11:13:38;100580.16;;;8.35;100.00
62111;BME280;48102;47.526;19.072;2022-11-15T11:16:46;100575.28;;;8.24;100.00
62111;BME280;48102;47.526;19.072;2022-11-15T11:20:10;100569.75;;;8.32;100.00
62111;BME280;48102;47.526;19.072;2022-11-15T11:40:38;100557.88;;;8.22;100.00
62111;BME280;48102;47.526;19.072;2022-11-15T11:44:12;100551.09;;;8.16;100.00
62111;BME280;48102;47.526;19.072;2022-11-15T11:47:24;100545.09;;;8.13;100.00
62111;BME280;48102;47.526;19.072;2022-11-15T11:50:32;100537.31;;;8.10;100.00
62111;BME280;48102;47.526;19.072;2022-11-15T11:53:42;100525.72;;;8.15;100.00
62111;BME280;48102;47.526;19.072;2022-11-15T11:56:49;100532.94;;;8.10;100.00
62111;BME280;48102;47.526;19.072;2022-11-15T12:00:04;100522.75;;;8.01;100.00
62111;BME280;48102;47.526;19.072;2022-11-15T12:07:01;100506.78;;;8.07;100.00
62111;BME280;48102;47.526;19.072;2022-11-15T12:10:38;100507.59;;;8.09;100.00
62111;BME280;48102;47.526;19.072;2022-11-15T12:13:43;100501.66;;;8.04;100.00
62111;BME280;48102;47.526;19.072;2022-11-15T12:16:47;100495.09;;;7.92;100.00
62111;BME280;48102;47.526;19.072;2022-11-15T12:19:52;100495.78;;;7.97;100.00
62111;BME280;48102;47.526;19.072;2022-11-15T12:23:28;100481.34;;;8.09;100.00
62111;BME280;48102;47.526;19.072;2022-11-15T12:26:40;100483.94;;;8.33;100.00
62111;BME280;48102;47.526;19.072;2022-11-15T12:29:50;100468.94;;;8.36;100.00
62111;BME280;48102;47.526;19.072;2022-11-15T12:32:57;100476.56;;;8.44;100.00
62111;BME280;48102;47.526;19.072;2022-11-15T12:43:37;100465.59;;;8.09;100.00
62111;BME280;48102;47.526;19.072;2022-11-15T12:49:45;100464.28;;;7.74;100.00
62111;BME280;48102;47.526;19.072;2022-11-15T12:53:26;100451.50;;;7.65;100.00
62111;BME280;48102;47.526;19.072;2022-11-15T12:56:31;100455.72;;;7.69;100.00
62111;BME280;48102;47.526;19.072;2022-11-15T12:59:51;100456.69;;;7.66;100.00
62111;BME280;48102;47.526;19.072;2022-11-15T13:03:18;100452.28;;;7.67;100.00
62111;BME280;48102;47.526;19.072;2022-11-15T13:09:51;100442.66;;;7.67;100.00
62111;BME280;48102;47.526;19.072;2022-11-15T13:13:08;100436.66;;;7.64;100.00
62111;BME280;48102;47.526;19.072;2022-11-15T13:16:18;100442.66;;;7.67;100.00
62111;BME280;48102;47.526;19.072;2022-11-15T13:19:23;100441.88;;;7.65;100.00
62111;BME280;48102;47.526;19.072;2022-11-15T13:22:27;100445.06;;;7.73;100.00
62111;BME280;48102;47.526;19.072;2022-11-15T13:26:14;100448.53;;;7.74;100.00
62111;BME280;48102;47.526;19.072;2022-11-15T13:29:20;100441.97;;;7.86;100.00
62111;BME280;48102;47.526;19.072;2022-11-15T13:32:23;100436.13;;;7.79;100.00
62111;BME280;48102;47.526;19.072;2022-11-15T13:35:27;100434.81;;;7.91;100.00
62111;BME280;48102;47.526;19.072;2022-11-15T13:38:33;100430.25;;;7.96;100.00
62111;BME280;48102;47.526;19.072;2022-11-15T13:41:45;100434.41;;;8.01;100.00
62111;BME280;48102;47.526;19.072;2022-11-15T13:44:58;100427.37;;;7.78;100.00
62111;BME280;48102;47.526;19.072;2022-11-15T13:48:03;100427.28;;;7.82;100.00
62111;BME280;48102;47.526;19.072;2022-11-15T13:51:12;100417.56;;;7.84;100.00
62111;BME280;48102;47.526;19.072;2022-11-15T13:54:33;100413.13;;;7.86;100.00
62111;BME280;48102;47.526;19.072;2022-11-15T13:57:42;100415.88;;;7.83;100.00
62111;BME280;48102;47.526;19.072;2022-11-15T14:00:47;100389.56;;;7.84;100.00
62111;BME280;48102;47.526;19.072;2022-11-15T14:04:00;100388.78;;;7.82;100.00
62111;BME280;48102;47.526;19.072;2022-11-15T14:07:03;100385.59;;;7.74;100.00
62111;BME280;48102;47.526;19.072;2022-11-15T14:10:38;100393.00;;;7.63;100.00
62111;BME280;48102;47.526;19.072;2022-11-15T14:13:40;100389.00;;;7.52;100.00
62111;BME280;48102;47.526;19.072;2022-11-15T14:16:46;100392.75;;;7.45;100.00
62111;BME280;48102;47.526;19.072;2022-11-15T14:19:50;100387.91;;;7.35;100.00
62111;BME280;48102;47.526;19.072;2022-11-15T14:22:57;100386.50;;;7.24;100.00
62111;BME280;48102;47.526;19.072;2022-11-15T14:26:00;100381.44;;;7.20;100.00
62111;BME280;48102;47.526;19.072;2022-11-15T14:29:28;100384.44;;;7.09;100.00
62111;BME280;48102;47.526;19.072;2022-11-15T14:32:46;100380.97;;;7.09;100.00
62111;BME280;48102;47.526;19.072;2022-11-15T14:35:51;100372.69;;;6.96;100.00
62111;BME280;48102;47.526;19.072;2022-11-15T14:38:54;100368.47;;;6.90;100.00
62111;BME280;48102;47.526;19.072;2022-11-15T14:41:57;100365.06;;;6.88;100.00
62111;BME280;48102;47.526;19.072;2022-11-15T14:45:00;100356.13;;;6.94;100.00
62111;BME280;48102;47.526;19.072;2022-11-15T14:48:03;100355.34;;;6.92;100.00
62111;BME280;48102;47.526;19.072;2022-11-15T14:51:11;100352.56;;;6.96;100.00
62111;BME280;48102;47.526;19.072;2022-11-15T14:54:17;100355.34;;;6.92;100.00
62111;BME280;48102;47.526;19.072;2022-11-15T14:57:19;100346.63;;;6.91;100.00
62111;BME280;48102;47.526;19.072;2022-11-15T15:00:23;100335.41;;;6.88;100.00
62111;BME280;48102;47.526;19.072;2022-11-15T15:03:25;100334.44;;;6.90;100.00
62111;BME280;48102;47.526;19.072;2022-11-15T15:06:28;100344.19;;;6.87;100.00
62111;BME280;48102;47.526;19.072;2022-11-15T15:09:32;100351.06;;;6.89;100.00
62111;BME280;48102;47.526;19.072;2022-11-15T15:12:35;100344.91;;;6.90;100.00
62111;BME280;48102;47.526;19.072;2022-11-15T15:15:38;100346.63;;;6.91;100.00
62111;BME280;48102;47.526;19.072;2022-11-15T15:18:44;100343.44;;;6.83;100.00
62111;BME280;48102;47.526;19.072;2022-11-15T15:21:47;100339.03;;;6.84;100.00
62111;BME280;48102;47.526;19.072;2022-11-15T15:24:50;100328.66;;;6.81;100.00
62111;BME280;48102;47.526;19.072;2022-11-15T15:27:52;100328.87;;;6.74;100.00
62111;BME280;48102;47.526;19.072;2022-11-15T15:30:56;100326.28;;;6.73;100.00
62111;BME280;48102;47.526;19.072;2022-11-15T15:33:59;100325.56;;;6.69;100.00
62111;BME280;48102;47.526;19.072;2022-11-15T15:40:28;100327.06;;;6.76;100.00
62111;BME280;48102;47.526;19.072;2022-11-15T15:43:31;100333.91;;;6.81;100.00
62111;BME280;48102;47.526;19.072;2022-11-15T15:46:34;100333.91;;;6.81;100.00
62111;BME280;48102;47.526;19.072;2022-11-15T15:49:37;100332.28;;;6.76;100.00
62111;BME280;48102;47.526;19.072;2022-11-15T15:52:39;100328.34;;;6.90;100.00
62111;BME280;48102;47.526;19.072;2022-11-15T15:55:42;100330.31;;;6.83;100.00
62111;BME280;48102;47.526;19.072;2022-11-15T15:58:45;100324.34;;;6.79;100.00
62111;BME280;48102;47.526;19.072;2022-11-15T16:01:48;100315.56;;;6.81;100.00
62111;BME280;48102;47.526;19.072;2022-11-15T16:04:51;100326.69;;;6.87;100.00
62111;BME280;48102;47.526;19.072;2022-11-15T16:07:53;100325.03;;;6.85;100.00
62111;BME280;48102;47.526;19.072;2022-11-15T16:10:56;100313.78;;;6.81;100.00
62111;BME280;48102;47.526;19.072;2022-11-15T16:13:59;100320.91;;;6.77;100.00
62111;BME280;48102;47.526;19.072;2022-11-15T16:17:02;100313.97;;;6.76;100.00
62111;BME280;48102;47.526;19.072;2022-11-15T16:20:05;100312.41;;;6.71;100.00
62111;BME280;48102;47.526;19.072;2022-11-15T16:23:13;100316.66;;;6.73;100.00
62111;BME280;48102;47.526;19.072;2022-11-15T16:26:25;100309.62;;;6.75;100.00
62111;BME280;48102;47.526;19.072;2022-11-15T16:29:28;100313.38;;;6.68;100.00
62111;BME280;48102;47.526;19.072;2022-11-15T16:32:30;100317.66;;;6.71;100.00
62111;BME280;48102;47.526;19.072;2022-11-15T16:35:33;100322.97;;;6.68;100.00
62111;BME280;48102;47.526;19.072;2022-11-15T16:38:36;100321.50;;;6.61;100.00
62111;BME280;48102;47.526;19.072;2022-11-15T16:41:41;100308.97;;;6.69;100.00
62111;BME280;48102;47.526;19.072;2022-11-15T16:44:48;100309.09;;;6.66;100.00
62111;BME280;48102;47.526;19.072;2022-11-15T16:47:52;100301.72;;;6.77;100.00
62111;BME280;48102;47.526;19.072;2022-11-15T16:50:58;100298.25;;;6.76;100.00
62111;BME280;48102;47.526;19.072;2022-11-15T16:54:01;100297.47;;;6.74;100.00
62111;BME280;48102;47.526;19.072;2022-11-15T16:57:03;100299.09;;;6.77;100.00
62111;BME280;48102;47.526;19.072;2022-11-15T17:00:10;100291.06;;;6.82;100.00
62111;BME280;48102;47.526;19.072;2022-11-15T17:03:13;100288.59;;;6.78;100.00
62111;BME280;48102;47.526;19.072;2022-11-15T17:06:17;100283.44;;;6.75;100.00
62111;BME280;48102;47.526;19.072;2022-11-15T17:09:21;100282.53;;;6.76;100.00
62111;BME280;48102;47.526;19.072;2022-11-15T17:12:28;100283.44;;;6.75;100.00
62111;BME280;48102;47.526;19.072;2022-11-15T17:15:32;100291.94;;;6.82;100.00
62111;BME280;48102;47.526;19.072;2022-11-15T17:18:35;100289.19;;;6.87;100.00
62111;BME280;48102;47.526;19.072;2022-11-15T17:21:38;100287.34;;;6.89;100.00
62111;BME280;48102;47.526;19.072;2022-11-15T17:24:41;100272.53;;;6.88;100.00
62111;BME280;48102;47.526;19.072;2022-11-15T17:27:44;100272.72;;;6.83;100.00
62111;BME280;48102;47.526;19.072;2022-11-15T17:30:52;100270.78;;;6.88;100.00
62111;BME280;48102;47.526;19.072;2022-11-15T17:33:55;100267.34;;;6.86;100.00
62111;BME280;48102;47.526;19.072;2022-11-15T17:36:58;100264.63;;;6.89;100.00
62111;BME280;48102;47.526;19.072;2022-11-15T17:40:01;100264.94;;;6.80;100.00
